Time;durP1;ratioP1;P1;durP2;ratioP2;P2;SDS_P1;SDS_P2;PMS_P1;PMS_P2;Temp;Humidity;BMP_temperature;BMP_pressure;BME280_temperature;BME280_humidity;BME280_pressure;Samples;Min_cycle;Max_cycle;Signal;HPM_P1;HPM_P2
2021/04/21 00:00:56;;;;;;;16.77;8.52;;;;;;;3.41;nan;101422.88;4989400;28;20037;-78
2021/04/21 00:03:23;;;;;;;15.60;6.95;;;;;;;3.39;nan;101424.91;4991481;28;20029;-78
2021/04/21 00:05:51;;;;;;;15.32;7.90;;;;;;;3.36;nan;101420.81;4982767;28;20026;-79
2021/04/21 00:08:18;;;;;;;12.18;6.93;;;;;;;3.28;nan;101416.44;5000698;28;20018;-80
2021/04/21 00:10:45;;;;;;;14.98;7.40;;;;;;;3.23;nan;101418.81;4991760;28;20026;-78
2021/04/21 00:13:10;;;;;;;16.52;7.70;;;;;;;3.13;nan;101409.50;4991606;28;20040;-78
2021/04/21 00:15:36;;;;;;;13.27;7.43;;;;;;;3.11;nan;101407.03;5007118;28;20040;-78
2021/04/21 00:18:05;;;;;;;12.55;6.93;;;;;;;3.09;nan;101409.03;4987334;28;20045;-79
2021/04/21 00:20:32;;;;;;;13.90;7.78;;;;;;;3.07;nan;101416.34;4989950;28;20026;-78
2021/04/21 00:23:01;;;;;;;14.25;6.88;;;;;;;3.03;nan;101407.09;4995139;28;20034;-78
2021/04/21 00:25:30;;;;;;;14.55;7.75;;;;;;;3.01;nan;101412.59;4987572;28;20148;-79
2021/04/21 00:27:57;;;;;;;13.45;7.40;;;;;;;2.95;nan;101409.84;4994291;28;20396;-78
2021/04/21 00:30:26;;;;;;;12.55;6.28;;;;;;;2.96;nan;101409.69;5005444;28;20026;-79
2021/04/21 00:32:53;;;;;;;12.82;6.88;;;;;;;2.98;nan;101409.50;4994459;28;20025;-79
2021/04/21 00:35:40;;;;;;;18.33;7.63;;;;;;;2.81;nan;101405.38;5000579;28;20033;-79
2021/04/21 00:38:13;;;;;;;10.77;6.10;;;;;;;2.80;nan;101401.91;4991337;28;20477;-78
2021/04/21 00:40:44;;;;;;;13.60;7.15;;;;;;;2.79;nan;101404.72;4981650;28;20389;-78
2021/04/21 00:43:38;;;;;;;12.25;6.47;;;;;;;2.71;nan;101400.34;5005606;28;20124;-78
2021/04/21 00:46:13;;;;;;;11.07;6.28;;;;;;;2.67;nan;101409.63;4984890;28;20396;-78
2021/04/21 00:49:05;;;;;;;12.43;6.30;;;;;;;2.54;nan;101402.31;5006391;28;20049;-79
2021/04/21 00:51:59;;;;;;;13.25;6.45;;;;;;;2.53;nan;101403.34;4986851;28;20523;-78
2021/04/21 00:54:33;;;;;;;17.23;6.65;;;;;;;2.55;nan;101401.31;4985260;28;20029;-77
2021/04/21 00:57:09;;;;;;;13.13;7.40;;;;;;;2.56;nan;101402.97;4988896;28;20041;-79
2021/04/21 00:59:43;;;;;;;12.88;7.07;;;;;;;2.38;nan;101392.72;5007111;28;20022;-78
2021/04/21 01:02:11;;;;;;;17.50;8.85;;;;;;;2.46;nan;101399.75;5005075;28;20068;-78
2021/04/21 01:04:41;;;;;;;20.33;9.35;;;;;;;2.48;nan;101403.03;4982578;28;20034;-77
2021/04/21 01:07:10;;;;;;;17.35;8.32;;;;;;;2.49;nan;101390.63;5003994;28;20068;-79
2021/04/21 01:09:38;;;;;;;15.57;8.02;;;;;;;2.49;nan;101390.63;4985869;28;20385;-78
2021/04/21 01:12:11;;;;;;;16.15;8.93;;;;;;;2.46;nan;101397.09;4997926;28;20029;-78
2021/04/21 01:14:42;;;;;;;19.05;8.23;;;;;;;2.42;nan;101390.53;4980162;28;20129;-77
2021/04/21 01:17:11;;;;;;;18.60;8.55;;;;;;;2.44;nan;101391.16;5004878;28;20053;-78
2021/04/21 01:19:55;;;;;;;22.13;7.95;;;;;;;2.44;nan;101385.88;4988119;28;20049;-78
2021/04/21 01:22:42;;;;;;;15.02;8.57;;;;;;;2.39;nan;101390.88;4986592;28;20030;-79
2021/04/21 01:25:33;;;;;;;21.25;8.88;;;;;;;2.37;nan;101387.59;5000853;28;20607;-78
2021/04/21 01:28:02;;;;;;;18.83;8.32;;;;;;;2.33;nan;101387.13;5005693;28;20097;-80
2021/04/21 01:30:30;;;;;;;20.83;10.20;;;;;;;2.24;nan;101382.91;4992725;28;20061;-78
2021/04/21 01:33:02;;;;;;;20.70;9.15;;;;;;;2.22;nan;101390.19;5009433;28;20026;-80
2021/04/21 01:35:29;;;;;;;13.75;8.38;;;;;;;2.24;nan;101384.72;4984180;28;20469;-78
2021/04/21 01:38:00;;;;;;;19.48;9.13;;;;;;;2.23;nan;101381.25;5007226;28;20037;-78
2021/04/21 01:40:36;;;;;;;20.60;10.10;;;;;;;2.20;nan;101386.91;4995347;28;20103;-78
2021/04/21 01:43:17;;;;;;;18.02;9.07;;;;;;;2.15;nan;101386.59;5002125;28;20030;-78
2021/04/21 01:45:43;;;;;;;20.35;8.73;;;;;;;2.12;nan;101385.13;5003348;28;20057;-78
2021/04/21 01:48:32;;;;;;;16.73;9.13;;;;;;;2.08;nan;101386.50;5000836;28;20029;-78
2021/04/21 01:51:04;;;;;;;21.58;9.65;;;;;;;2.16;nan;101379.53;5006144;28;20091;-78
2021/04/21 01:53:35;;;;;;;20.27;8.85;;;;;;;2.16;nan;101379.53;5006551;28;20565;-78
2021/04/21 01:56:10;;;;;;;18.50;9.52;;;;;;;2.07;nan;101376.94;4988531;28;20257;-79
2021/04/21 01:58:47;;;;;;;18.00;9.32;;;;;;;2.04;nan;101377.28;5007089;28;20034;-80
2021/04/21 02:01:48;;;;;;;16.55;8.68;;;;;;;1.94;nan;101367.94;5002168;28;20396;-78
2021/04/21 02:04:24;;;;;;;19.25;8.95;;;;;;;1.95;nan;101377.50;4971203;28;20177;-79
2021/04/21 02:07:15;;;;;;;17.65;9.25;;;;;;;1.83;nan;101368.34;4993121;28;20048;-78
2021/04/21 02:10:00;;;;;;;20.02;10.25;;;;;;;1.87;nan;101378.41;5000275;28;20452;-79
2021/04/21 02:12:38;;;;;;;17.05;9.13;;;;;;;1.86;nan;101378.56;5000387;28;20022;-78
2021/04/21 02:15:09;;;;;;;19.08;8.52;;;;;;;1.84;nan;101376.09;5005590;28;20030;-80
2021/04/21 02:17:49;;;;;;;12.23;7.53;;;;;;;1.82;nan;101372.81;4997823;28;20036;-80
2021/04/21 02:20:43;;;;;;;20.98;7.93;;;;;;;1.72;nan;101372.22;4988426;28;20156;-78
2021/04/21 02:23:29;;;;;;;17.48;9.15;;;;;;;1.68;nan;101373.56;5005584;28;20125;-78
2021/04/21 02:26:18;;;;;;;17.92;10.23;;;;;;;1.68;nan;101369.09;5000779;28;20124;-78
2021/04/21 02:28:52;;;;;;;19.95;10.13;;;;;;;1.62;nan;101366.34;4979227;28;20105;-78
2021/04/21 02:31:29;;;;;;;13.55;8.05;;;;;;;1.57;nan;101366.84;5002981;28;20033;-78
2021/04/21 02:34:22;;;;;;;19.98;8.55;;;;;;;1.58;nan;101367.66;5008386;28;20038;-78
2021/04/21 02:37:07;;;;;;;15.65;8.32;;;;;;;1.53;nan;101368.19;5008363;28;20021;-78
2021/04/21 02:39:46;;;;;;;14.48;7.80;;;;;;;1.57;nan;101363.38;4999637;28;20187;-78
2021/04/21 02:42:20;;;;;;;11.15;7.22;;;;;;;1.50;nan;101363.28;5003688;28;20030;-78
2021/04/21 02:45:08;;;;;;;13.27;8.20;;;;;;;1.35;nan;101365.00;5009701;28;20029;-78
2021/04/21 02:47:38;;;;;;;10.32;6.65;;;;;;;1.44;nan;101363.97;5005038;28;20378;-78
2021/04/21 02:50:24;;;;;;;14.32;7.78;;;;;;;1.38;nan;101365.47;4990507;28;20030;-78
2021/04/21 02:53:08;;;;;;;9.18;5.80;;;;;;;1.49;nan;101362.44;4985878;28;20080;-78
2021/04/21 02:55:59;;;;;;;12.88;7.20;;;;;;;1.41;nan;101359.00;5008201;28;20039;-78
2021/04/21 02:58:57;;;;;;;8.38;6.07;;;;;;;1.35;nan;101360.53;4967833;28;20046;-79
2021/04/21 03:01:46;;;;;;;19.45;10.38;;;;;;;1.21;nan;101366.53;5004332;28;20041;-77
2021/04/21 03:04:32;;;;;;;14.45;8.63;;;;;;;1.17;nan;101365.25;4997788;28;20042;-78
2021/04/21 03:07:00;;;;;;;19.17;9.68;;;;;;;1.18;nan;101364.25;5009165;28;20404;-78
2021/04/21 03:09:46;;;;;;;15.93;7.78;;;;;;;1.13;nan;101363.94;4992975;28;20091;-79
2021/04/21 03:12:16;;;;;;;16.33;8.05;;;;;;;1.11;nan;101368.56;5003362;28;20422;-78
2021/04/21 03:14:46;;;;;;;18.98;8.93;;;;;;;1.13;nan;101358.66;4992579;28;20026;-78
2021/04/21 03:17:12;;;;;;;11.85;8.05;;;;;;;1.12;nan;101357.84;4998143;28;20052;-81
2021/04/21 03:19:58;;;;;;;13.40;7.53;;;;;;;1.07;nan;101361.97;4988847;28;20026;-78
2021/04/21 03:22:26;;;;;;;13.45;7.07;;;;;;;1.06;nan;101361.13;5001399;28;20029;-78
2021/04/21 03:25:10;;;;;;;14.65;8.02;;;;;;;0.97;nan;101354.25;4989849;28;20038;-80
2021/04/21 03:27:40;;;;;;;14.50;7.60;;;;;;;1.03;nan;101355.38;5005669;28;20489;-79
2021/04/21 03:30:11;;;;;;;12.25;7.63;;;;;;;0.99;nan;101348.81;5008179;28;20025;-78
2021/04/21 03:32:41;;;;;;;11.10;6.97;;;;;;;0.96;nan;101344.69;5004052;28;20028;-78
2021/04/21 03:35:10;;;;;;;17.55;10.50;;;;;;;0.88;nan;101344.72;5006211;28;20395;-78
2021/04/21 03:38:00;;;;;;;15.48;8.25;;;;;;;0.84;nan;101343.41;4984000;28;20027;-78
2021/04/21 03:40:26;;;;;;;15.05;9.00;;;;;;;0.84;nan;101351.31;5001509;28;20026;-78
2021/04/21 03:42:52;;;;;;;19.85;9.90;;;;;;;0.80;nan;101356.13;5005553;28;20488;-78
2021/04/21 03:45:19;;;;;;;20.52;12.07;;;;;;;0.79;nan;101354.47;4984178;28;20045;-78
2021/04/21 03:47:45;;;;;;;22.73;12.13;;;;;;;0.79;nan;101351.84;4985890;28;20411;-78
2021/04/21 03:50:11;;;;;;;24.10;11.35;;;;;;;0.84;nan;101353.97;5000649;28;20063;-78
2021/04/21 03:52:44;;;;;;;22.50;12.77;;;;;;;0.80;nan;101350.84;5004012;28;20030;-78
2021/04/21 03:55:11;;;;;;;28.25;14.10;;;;;;;0.86;nan;101349.34;5010345;28;20054;-78
2021/04/21 03:57:43;;;;;;;26.75;13.38;;;;;;;0.86;nan;101358.06;5003826;28;20038;-78
2021/04/21 04:00:14;;;;;;;27.02;12.95;;;;;;;0.83;nan;101347.88;5001880;28;20064;-78
2021/04/21 04:02:44;;;;;;;23.30;12.52;;;;;;;0.86;nan;101352.81;4999527;28;20796;-78
2021/04/21 04:05:14;;;;;;;22.45;12.48;;;;;;;0.81;nan;101351.69;4999319;28;20040;-78
2021/04/21 04:07:45;;;;;;;22.85;12.32;;;;;;;0.76;nan;101354.00;4988452;28;20030;-78
2021/04/21 04:10:14;;;;;;;27.33;13.98;;;;;;;0.62;nan;101355.50;4984130;28;20096;-78
2021/04/21 04:12:43;;;;;;;28.92;13.75;;;;;;;0.68;nan;101354.81;4991070;28;20040;-78
2021/04/21 04:15:11;;;;;;;25.42;12.80;;;;;;;0.73;nan;101359.63;4999373;28;20084;-79
2021/04/21 04:17:40;;;;;;;32.03;14.43;;;;;;;0.87;nan;101366.81;4992362;28;20489;-78
2021/04/21 04:20:13;;;;;;;28.48;14.38;;;;;;;0.91;nan;101365.50;4994915;28;20037;-78
2021/04/21 04:22:44;;;;;;;30.42;15.27;;;;;;;1.02;nan;101361.66;4986088;28;20026;-77
2021/04/21 04:25:12;;;;;;;20.08;11.77;;;;;;;1.18;nan;101358.97;4987212;28;20412;-78
2021/04/21 04:27:39;;;;;;;20.58;11.77;;;;;;;1.30;nan;101364.69;5002355;28;20022;-77
2021/04/21 04:30:06;;;;;;;19.45;11.20;;;;;;;1.39;nan;101367.09;4986982;28;20101;-78
2021/04/21 04:32:33;;;;;;;15.63;9.57;;;;;;;1.53;nan;101362.91;4993427;28;20026;-80
2021/04/21 04:34:59;;;;;;;20.38;11.25;;;;;;;1.61;nan;101364.66;4994454;28;20101;-78
2021/04/21 04:37:27;;;;;;;17.85;10.20;;;;;;;1.64;nan;101364.34;4991276;28;20025;-78
2021/04/21 04:39:54;;;;;;;15.00;9.43;;;;;;;1.69;nan;101362.00;5004016;28;20072;-79
2021/04/21 04:42:20;;;;;;;18.00;10.65;;;;;;;1.80;nan;101354.50;5000542;28;20037;-76
2021/04/21 04:44:49;;;;;;;17.20;9.48;;;;;;;1.90;nan;101364.81;5002632;28;20057;-77
2021/04/21 04:47:28;;;;;;;21.58;9.65;;;;;;;2.02;nan;101363.41;5003008;28;20057;-77
2021/04/21 04:50:08;;;;;;;18.65;9.75;;;;;;;2.10;nan;101358.06;5005081;28;20026;-77
2021/04/21 04:52:38;;;;;;;16.00;8.55;;;;;;;2.33;nan;101359.84;5001182;28;20029;-77
2021/04/21 04:55:06;;;;;;;17.45;9.63;;;;;;;2.48;nan;101359.88;5006895;28;20056;-77
2021/04/21 04:57:33;;;;;;;14.48;7.97;;;;;;;2.62;nan;101364.38;5008380;28;20128;-77
2021/04/21 05:00:01;;;;;;;13.65;7.03;;;;;;;2.77;nan;101374.97;5006589;28;20030;-77
2021/04/21 05:02:29;;;;;;;11.10;6.88;;;;;;;2.92;nan;101374.00;5004672;28;20026;-76
2021/04/21 05:04:59;;;;;;;14.57;7.55;;;;;;;3.07;nan;101375.81;5003865;28;20099;-77
2021/04/21 05:07:42;;;;;;;10.07;7.25;;;;;;;3.22;nan;101374.78;5007018;28;20036;-76
2021/04/21 05:10:16;;;;;;;16.42;8.70;;;;;;;3.38;nan;101380.88;4994495;28;20030;-76
2021/04/21 05:12:43;;;;;;;13.65;8.32;;;;;;;3.49;nan;101383.88;5005162;28;20028;-77
2021/04/21 05:15:32;;;;;;;15.25;8.48;;;;;;;3.59;nan;101379.13;5001504;28;20048;-77
2021/04/21 05:18:00;;;;;;;14.60;8.88;;;;;;;3.78;nan;101382.19;5007561;28;20038;-78
2021/04/21 05:20:44;;;;;;;14.98;7.95;;;;;;;3.90;nan;101380.66;4986770;28;20033;-78
2021/04/21 05:23:41;;;;;;;19.70;9.82;;;;;;;3.98;nan;101377.91;5002925;28;20033;-77
2021/04/21 05:26:35;;;;;;;17.65;9.65;;;;;;;4.22;nan;101374.03;4994640;28;20111;-76
2021/04/21 05:29:29;;;;;;;19.55;10.52;;;;;;;4.46;nan;101376.25;4977307;28;20036;-76
2021/04/21 05:32:32;;;;;;;16.13;9.75;;;;;;;4.69;nan;101368.06;5002339;28;20050;-77
2021/04/21 05:35:55;;;;;;;20.67;12.52;;;;;;;4.82;nan;101375.28;5002766;28;20825;-75
2021/04/21 05:39:04;;;;;;;21.30;11.70;;;;;;;5.02;nan;101373.56;4999700;28;20042;-77
2021/04/21 05:41:41;;;;;;;25.83;12.60;;;;;;;5.19;nan;101375.91;5000077;28;20592;-76
2021/04/21 05:44:54;;;;;;;28.80;14.65;;;;;;;5.36;nan;101375.38;5001555;28;20048;-75
2021/04/21 05:47:41;;;;;;;24.13;12.18;;;;;;;5.55;nan;101378.28;4982046;28;20108;-75
2021/04/21 05:50:38;;;;;;;25.50;14.40;;;;;;;5.71;nan;101376.09;5003209;28;20040;-76
2021/04/21 05:53:55;;;;;;;34.25;15.27;;;;;;;5.84;nan;101377.16;4992192;28;20549;-77
2021/04/21 05:56:58;;;;;;;23.73;12.10;;;;;;;5.84;nan;101379.81;4994924;28;20484;-76
2021/04/21 05:59:32;;;;;;;39.28;11.05;;;;;;;5.65;nan;101374.25;4991178;28;20040;-77
2021/04/21 06:01:59;;;;;;;29.33;12.23;;;;;;;5.92;nan;101377.00;4982812;28;20089;-76
2021/04/21 06:04:24;;;;;;;27.00;10.75;;;;;;;5.76;nan;101379.00;5001303;28;20416;-76
2021/04/21 06:07:07;;;;;;;28.45;11.50;;;;;;;6.03;nan;101373.75;5003006;28;20026;-76
2021/04/21 06:09:33;;;;;;;20.80;11.27;;;;;;;6.32;nan;101373.38;5002679;28;20029;-75
2021/04/21 06:12:10;;;;;;;19.88;10.50;;;;;;;6.68;nan;101369.47;4983243;28;20030;-77
2021/04/21 06:14:36;;;;;;;25.48;10.10;;;;;;;6.93;nan;101369.59;4998177;28;20030;-75
2021/04/21 06:17:03;;;;;;;22.65;11.30;;;;;;;6.68;nan;101372.13;4999794;28;20037;-76
2021/04/21 06:19:29;;;;;;;24.13;10.60;;;;;;;6.87;nan;101365.94;4996944;28;20023;-77
2021/04/21 06:21:55;;;;;;;22.63;8.60;;;;;;;7.03;nan;101367.34;4986940;28;20041;-76
2021/04/21 06:24:22;;;;;;;18.83;9.20;;;;;;;7.22;nan;101366.44;5002045;28;20038;-76
2021/04/21 06:26:48;;;;;;;20.38;9.95;;;;;;;7.25;nan;101365.22;4981231;28;20221;-76
2021/04/21 06:29:14;;;;;;;18.45;9.82;;;;;;;7.64;nan;101369.53;5001993;28;20030;-76
2021/04/21 06:31:45;;;;;;;21.98;9.73;;;;;;;7.77;nan;101364.13;4994004;28;20037;-76
2021/04/21 06:34:12;;;;;;;22.20;9.65;;;;;;;7.85;nan;101368.38;4979075;28;20064;-76
2021/04/21 06:36:44;;;;;;;19.08;8.82;;;;;;;8.18;nan;101369.00;4980640;28;20026;-76
2021/04/21 06:39:11;;;;;;;20.13;8.35;;;;;;;8.52;nan;101369.56;4991409;28;20037;-76
2021/04/21 06:41:37;;;;;;;15.55;8.80;;;;;;;8.57;nan;101367.06;4995829;28;20026;-76
2021/04/21 06:44:03;;;;;;;19.67;8.23;;;;;;;8.90;nan;101361.38;4991077;28;20029;-75
2021/04/21 06:46:29;;;;;;;16.30;8.18;;;;;;;9.02;nan;101361.47;4977747;28;20389;-75
2021/04/21 06:49:00;;;;;;;15.75;7.70;;;;;;;9.07;nan;101362.44;4973000;28;20041;-76
2021/04/21 06:51:28;;;;;;;13.20;7.70;;;;;;;9.13;nan;101360.72;4982626;28;20029;-75
2021/04/21 06:53:55;;;;;;;15.32;8.20;;;;;;;9.48;nan;101362.75;4992663;28;20029;-75
2021/04/21 06:56:30;;;;;;;14.55;8.18;;;;;;;9.46;nan;101360.31;4973225;28;20069;-75
2021/04/21 06:58:56;;;;;;;15.38;8.43;;;;;;;9.76;nan;101359.50;4976069;28;20064;-76
2021/04/21 07:01:26;;;;;;;21.40;8.35;;;;;;;9.48;nan;101354.75;4996607;28;20025;-76
2021/04/21 07:03:53;;;;;;;15.93;8.05;;;;;;;9.43;nan;101354.59;4998367;28;20440;-77
2021/04/21 07:06:21;;;;;;;18.40;8.60;;;;;;;9.52;nan;101356.75;4984643;28;20029;-76
2021/04/21 07:08:48;;;;;;;18.17;7.28;;;;;;;9.81;nan;101363.13;5000663;28;20160;-77
2021/04/21 07:11:13;;;;;;;13.85;7.28;;;;;;;10.10;nan;101360.66;4982401;28;20037;-77
2021/04/21 07:13:50;;;;;;;15.38;6.97;;;;;;;9.95;nan;101359.22;5000386;28;20083;-76
2021/04/21 07:16:17;;;;;;;11.20;6.53;;;;;;;10.21;nan;101355.34;4999324;28;20076;-76
2021/04/21 07:18:52;;;;;;;11.20;6.25;;;;;;;10.51;nan;101357.94;4998149;28;20037;-76
2021/04/21 07:21:18;;;;;;;17.67;7.32;;;;;;;10.34;nan;101358.84;5004005;28;20029;-76
2021/04/21 07:23:55;;;;;;;17.25;7.05;;;;;;;10.49;nan;101360.03;5000182;28;20119;-76
2021/04/21 07:26:32;;;;;;;14.23;6.70;;;;;;;10.94;nan;101361.28;5004325;28;20026;-76
2021/04/21 07:28:58;;;;;;;13.20;7.10;;;;;;;11.19;nan;101353.81;4981857;28;20488;-76
2021/04/21 07:31:24;;;;;;;18.23;7.00;;;;;;;11.45;nan;101352.41;4995279;28;20620;-77
2021/04/21 07:33:50;;;;;;;19.83;7.40;;;;;;;11.66;nan;101353.63;4997236;28;20036;-77
2021/04/21 07:36:21;;;;;;;16.65;6.93;;;;;;;11.60;nan;101355.41;5001229;28;20212;-76
2021/04/21 07:38:56;;;;;;;15.63;7.10;;;;;;;11.57;nan;101347.03;4999177;28;20026;-78
2021/04/21 07:41:54;;;;;;;13.88;6.55;;;;;;;11.44;nan;101340.88;5005838;28;20041;-77
2021/04/21 07:44:50;;;;;;;13.98;6.80;;;;;;;11.84;nan;101344.56;4971861;28;20037;-77
2021/04/21 07:47:15;;;;;;;13.35;6.32;;;;;;;12.15;nan;101353.97;5003933;28;20034;-76
2021/04/21 07:49:48;;;;;;;14.13;6.43;;;;;;;12.23;nan;101353.59;4993208;28;20080;-77
2021/04/21 07:52:29;;;;;;;12.23;6.30;;;;;;;12.03;nan;101332.59;5004519;28;20113;-78
2021/04/21 07:55:15;;;;;;;14.40;6.28;;;;;;;12.07;nan;101357.88;4985424;28;20033;-77
2021/04/21 07:57:44;;;;;;;13.30;6.30;;;;;;;12.56;nan;101348.16;5001775;28;20475;-76
2021/04/21 08:00:23;;;;;;;14.38;6.70;;;;;;;12.39;nan;101352.78;4995389;28;20117;-77
2021/04/21 08:02:49;;;;;;;11.55;5.97;;;;;;;12.31;nan;101353.16;5004669;28;20057;-76
2021/04/21 08:05:15;;;;;;;15.20;6.93;;;;;;;12.67;nan;101349.97;5003676;28;20030;-76
2021/04/21 08:07:41;;;;;;;14.27;7.15;;;;;;;12.88;nan;101344.88;5000429;28;20122;-76
2021/04/21 08:10:20;;;;;;;14.68;6.10;;;;;;;13.22;nan;101342.91;4997449;28;20623;-77
2021/04/21 08:12:45;;;;;;;11.40;6.13;;;;;;;13.29;nan;101341.66;4991362;28;20038;-76
2021/04/21 08:15:12;;;;;;;11.90;5.82;;;;;;;13.51;nan;101343.53;4995554;28;20496;-76
2021/04/21 08:17:55;;;;;;;11.40;5.95;;;;;;;13.41;nan;101346.09;4999775;28;20030;-77
2021/04/21 08:20:29;;;;;;;9.65;6.03;;;;;;;13.24;nan;101338.09;5000078;28;20117;-78
2021/04/21 08:23:06;;;;;;;10.57;5.13;;;;;;;13.58;nan;101336.03;4988163;28;20187;-76
2021/04/21 08:25:31;;;;;;;12.70;5.30;;;;;;;14.06;nan;101332.47;4997139;28;20037;-78
2021/04/21 08:27:57;;;;;;;12.45;6.32;;;;;;;14.03;nan;101332.97;4997292;28;20599;-78
2021/04/21 08:30:24;;;;;;;11.95;5.03;;;;;;;14.12;nan;101336.81;4979854;28;20467;-75
2021/04/21 08:32:50;;;;;;;12.00;5.03;;;;;;;14.54;nan;101329.84;4991569;28;20029;-76
2021/04/21 08:35:16;;;;;;;11.40;4.68;;;;;;;14.51;nan;101333.91;4975130;28;20030;-75
2021/04/21 08:37:42;;;;;;;18.30;5.47;;;;;;;14.80;nan;101337.84;4987193;28;20060;-76
2021/04/21 08:40:09;;;;;;;16.52;4.53;;;;;;;15.03;nan;101328.50;4990738;28;20026;-77
2021/04/21 08:42:38;;;;;;;11.13;4.78;;;;;;;14.96;nan;101332.53;4984841;28;20092;-77
2021/04/21 08:45:05;;;;;;;10.70;4.03;;;;;;;15.40;nan;101338.38;4995806;28;20029;-77
2021/04/21 08:47:33;;;;;;;17.88;4.60;;;;;;;15.10;nan;101331.00;4997485;28;20025;-78
2021/04/21 08:49:59;;;;;;;7.80;3.97;;;;;;;15.49;nan;101334.09;4997332;28;20093;-78
2021/04/21 08:52:26;;;;;;;8.52;3.88;;;;;;;15.43;nan;101337.84;4999557;28;20038;-77
2021/04/21 08:54:55;;;;;;;8.50;4.30;;;;;;;15.55;nan;101329.50;5006407;28;20045;-77
2021/04/21 08:57:21;;;;;;;16.38;5.00;;;;;;;15.37;nan;101326.22;4998994;28;20113;-77
2021/04/21 08:59:48;;;;;;;8.48;3.58;;;;;;;15.42;nan;101323.53;4996865;28;20024;-77
2021/04/21 09:02:16;;;;;;;10.18;4.20;;;;;;;15.96;nan;101331.19;4998873;28;20676;-77
2021/04/21 09:04:44;;;;;;;10.70;4.53;;;;;;;15.96;nan;101335.78;4984746;28;20400;-76
2021/04/21 09:07:11;;;;;;;9.25;3.90;;;;;;;16.21;nan;101337.72;4997676;28;20025;-77
2021/04/21 09:09:37;;;;;;;9.60;4.22;;;;;;;15.18;nan;101333.16;5001599;28;20014;-77
2021/04/21 09:12:05;;;;;;;10.70;5.03;;;;;;;15.73;nan;101333.63;5001249;28;20630;-78
2021/04/21 09:14:30;;;;;;;10.70;4.45;;;;;;;15.70;nan;101340.38;5003098;28;20352;-77
2021/04/21 09:16:56;;;;;;;13.07;4.63;;;;;;;15.96;nan;101343.91;5001676;28;20034;-78
2021/04/21 09:19:22;;;;;;;10.93;5.07;;;;;;;15.72;nan;101346.31;5000074;28;20029;-76
2021/04/21 09:22:03;;;;;;;11.80;4.72;;;;;;;15.45;nan;101341.09;4991871;28;20029;-78
2021/04/21 09:24:28;;;;;;;9.18;4.70;;;;;;;15.91;nan;101342.00;4998923;28;20037;-79
2021/04/21 09:26:54;;;;;;;12.85;5.82;;;;;;;15.71;nan;101334.69;4985497;28;20041;-78
2021/04/21 09:29:29;;;;;;;11.45;5.13;;;;;;;16.01;nan;101338.53;4989960;28;20116;-77
2021/04/21 09:32:09;;;;;;;12.98;4.82;;;;;;;16.32;nan;101339.31;4994662;28;20030;-78
2021/04/21 09:34:35;;;;;;;7.93;4.13;;;;;;;16.48;nan;101338.19;4998948;28;20030;-80
2021/04/21 09:37:01;;;;;;;10.02;3.83;;;;;;;16.81;nan;101330.59;4986721;28;20045;-79
2021/04/21 09:39:26;;;;;;;9.55;3.90;;;;;;;16.44;nan;101329.03;4988054;28;20029;-79
2021/04/21 09:42:01;;;;;;;6.00;3.95;;;;;;;16.80;nan;101326.25;4981681;28;20509;-78
2021/04/21 09:44:30;;;;;;;9.00;4.00;;;;;;;16.95;nan;101328.13;4981773;28;20025;-78
2021/04/21 09:47:08;;;;;;;8.40;4.53;;;;;;;17.20;nan;101315.28;4988780;28;20029;-79
2021/04/21 09:49:39;;;;;;;9.60;5.10;;;;;;;16.88;nan;101323.00;5007197;28;20388;-78
2021/04/21 09:52:10;;;;;;;12.15;5.05;;;;;;;16.78;nan;101328.44;4987119;28;21999;-78
2021/04/21 09:54:42;;;;;;;9.85;4.78;;;;;;;17.36;nan;101323.31;5005173;28;20414;-78
2021/04/21 09:57:18;;;;;;;10.10;4.63;;;;;;;17.32;nan;101314.13;5005065;28;20477;-79
2021/04/21 09:59:54;;;;;;;7.75;4.82;;;;;;;17.20;nan;101315.28;4983125;28;20500;-78
2021/04/21 10:02:30;;;;;;;11.50;5.50;;;;;;;17.22;nan;101309.56;5000180;28;20030;-78
2021/04/21 10:04:56;;;;;;;7.78;5.35;;;;;;;17.19;nan;101312.84;5003743;28;20447;-81
2021/04/21 10:07:22;;;;;;;11.27;5.78;;;;;;;17.11;nan;101303.41;4987640;28;20064;-78
2021/04/21 10:09:58;;;;;;;13.77;5.35;;;;;;;17.49;nan;101311.88;5006503;28;20017;-79
2021/04/21 10:12:32;;;;;;;7.97;4.88;;;;;;;17.84;nan;101313.56;4984305;28;20101;-81
2021/04/21 10:15:08;;;;;;;9.27;4.95;;;;;;;17.59;nan;101310.97;5002032;28;20078;-79
2021/04/21 10:17:42;;;;;;;8.60;5.38;;;;;;;17.52;nan;101305.88;5005530;28;20489;-79
2021/04/21 10:20:18;;;;;;;38.70;8.90;;;;;;;18.08;nan;101300.88;4985588;28;20097;-78
2021/04/21 10:22:46;;;;;;;9.73;5.70;;;;;;;17.50;nan;101310.78;4980759;28;20025;-80
2021/04/21 10:25:14;;;;;;;8.00;5.78;;;;;;;16.55;nan;101300.88;5003136;28;20647;-79
2021/04/21 10:27:40;;;;;;;11.52;6.47;;;;;;;16.27;nan;101309.56;4986674;28;20056;-78
2021/04/21 10:30:07;;;;;;;11.82;5.20;;;;;;;16.59;nan;101306.53;5004106;28;20931;-80
2021/04/21 10:32:34;;;;;;;8.20;5.22;;;;;;;17.49;nan;101295.63;4997163;28;20574;-79
2021/04/21 10:35:00;;;;;;;7.20;5.10;;;;;;;17.67;nan;101294.97;5005453;28;20046;-78
2021/04/21 10:37:26;;;;;;;9.60;5.45;;;;;;;16.87;nan;101297.00;5004350;28;20019;-80
2021/04/21 10:39:54;;;;;;;9.80;5.65;;;;;;;16.49;nan;101295.72;4986881;28;20026;-78
2021/04/21 10:42:20;;;;;;;9.10;5.53;;;;;;;16.99;nan;101294.78;4995160;28;20037;-78
2021/04/21 10:44:48;;;;;;;11.18;4.95;;;;;;;16.92;nan;101297.81;4993110;28;20091;-79
2021/04/21 10:47:15;;;;;;;10.00;5.70;;;;;;;16.58;nan;101294.91;4998153;28;20030;-76
2021/04/21 10:49:51;;;;;;;10.95;5.47;;;;;;;16.17;nan;101301.50;4981801;28;20555;-76
2021/04/21 10:52:21;;;;;;;7.95;5.10;;;;;;;16.31;nan;101302.53;4988140;28;20048;-75
2021/04/21 10:54:53;;;;;;;10.13;5.32;;;;;;;16.80;nan;101288.38;5002258;28;20096;-76
2021/04/21 10:57:21;;;;;;;9.75;5.38;;;;;;;16.92;nan;101299.72;4982862;28;20037;-76
2021/04/21 11:00:13;;;;;;;5.57;4.35;;;;;;;16.76;nan;101295.44;5001263;28;20054;-76
2021/04/21 11:02:44;;;;;;;8.10;4.55;;;;;;;16.23;nan;101309.31;5000187;28;20018;-77
2021/04/21 11:05:17;;;;;;;9.35;4.97;;;;;;;16.13;nan;101303.09;5000338;28;20639;-76
2021/04/21 11:07:58;;;;;;;7.75;4.47;;;;;;;16.69;nan;101303.00;4993760;28;20037;-76
2021/04/21 11:10:39;;;;;;;8.73;4.70;;;;;;;17.38;nan;101292.16;4986582;28;20021;-76
2021/04/21 11:13:07;;;;;;;7.50;4.75;;;;;;;16.89;nan;101294.84;5001026;28;20046;-77
2021/04/21 11:15:38;;;;;;;8.48;4.60;;;;;;;16.77;nan;101297.06;5002746;28;20037;-77
2021/04/21 11:18:13;;;;;;;8.20;4.72;;;;;;;16.96;nan;101295.34;4995500;28;20037;-76
2021/04/21 11:20:47;;;;;;;;;;;;;;;17.08;nan;101282.31;4994736;28;20026;-76
2021/04/21 11:26:30;;;;;;;10.07;4.38;;;;;;;18.60;nan;101290.34;5001417;28;20534;-77
2021/04/21 11:29:04;;;;;;;6.95;4.38;;;;;;;19.27;nan;101283.81;4994452;28;20037;-76
2021/04/21 11:31:39;;;;;;;8.57;4.47;;;;;;;18.18;nan;101285.63;5000710;28;20799;-76
2021/04/21 11:34:27;;;;;;;7.20;4.55;;;;;;;17.92;nan;101287.75;4995763;28;20072;-75
2021/04/21 11:37:19;;;;;;;9.27;4.38;;;;;;;18.32;nan;101284.69;4994184;28;20023;-75
2021/04/21 11:39:49;;;;;;;10.05;5.60;;;;;;;18.33;nan;101280.88;4975365;28;20129;-77
2021/04/21 11:42:29;;;;;;;14.82;5.25;;;;;;;17.93;nan;101281.22;4979704;28;20037;-76
2021/04/21 11:45:23;;;;;;;9.88;6.30;;;;;;;18.52;nan;101278.22;4995915;28;20029;-76
2021/04/21 11:47:49;;;;;;;6.70;4.45;;;;;;;18.06;nan;101267.00;4977974;28;20034;-76
2021/04/21 11:50:18;;;;;;;8.60;5.22;;;;;;;17.86;nan;101272.63;4999918;28;20014;-76
2021/04/21 11:52:50;;;;;;;9.50;5.30;;;;;;;18.35;nan;101277.88;4993941;28;20033;-75
2021/04/21 11:55:42;;;;;;;8.48;5.82;;;;;;;18.34;nan;101285.19;4993678;28;20033;-75
2021/04/21 11:58:26;;;;;;;10.40;6.03;;;;;;;18.18;nan;101286.44;5000119;28;20079;-76
2021/04/21 12:00:54;;;;;;;12.02;5.93;;;;;;;18.19;nan;101285.34;5003721;28;20472;-76
2021/04/21 12:03:40;;;;;;;9.30;6.25;;;;;;;17.79;nan;101284.59;4998417;28;20112;-76
2021/04/21 12:06:08;;;;;;;9.45;5.47;;;;;;;17.90;nan;101288.03;4982452;28;20101;-79
2021/04/21 12:08:44;;;;;;;14.40;5.82;;;;;;;18.34;nan;101279.78;4988897;28;20026;-80
2021/04/21 12:11:10;;;;;;;13.90;5.75;;;;;;;18.46;nan;101283.97;4987918;28;20192;-80
2021/04/21 12:13:47;;;;;;;12.40;5.38;;;;;;;18.03;nan;101278.44;5003601;28;20045;-80